Aransas County, TX

5:35 AM CDT on April 26, 2015 (GMT -0500)
Aransas County | | Change Station
CLOSE
Current Station
Airport
Location: Rockport,
Elevation: 23 ft
Nearby Weather Stations

Elev 23 ft 28.08 °N, 97.05 °W | Updated 4 minutes ago

Overcast
Overcast
76 °F
Feels Like 76 °F
N
7
Wind Variable Wind from ESE

Today
High -- | Low -- °F
--% Chance of Precip.
Yesterday
High -- | Low -- °F
Precip. -- in
6:52 AM 7:59 PM
First Quarter, 54% visible
Pressure 29.66 in
Visibility 2.5 miles
Clouds Overcast 1100 ft
Dew Point 74 °F
Humidity 94%
Rainfall 0.00 in
Snow Depth Not available.
UV 0 out of 12
Pollen 5.80 out of 12
Air Quality Not available.
Flu Activity Local Activity
SPECI KRKP 261031Z AUTO 11006KT 2 1/2SM VCTS BR OVC011 24/23 A2966 RMK AO2 LTG DSNT SW AND NW T02440233

More Conditions Fewer Conditions

Pressure 29.66 in
Visibility 2.5 miles
Clouds Overcast 1100 ft
Dew Point 74 °F
Humidity 94%
Rainfall 0.00 in
Snow Depth Not available.
UV 0 out of 12
Pollen 5.80 out of 12
Air Quality Not available.
Flu Activity Local Activity
SPECI KRKP 261031Z AUTO 11006KT 2 1/2SM VCTS BR OVC011 24/23 A2966 RMK AO2 LTG DSNT SW AND NW T02440233

More Conditions Fewer Conditions

The full scope of the disaster following a powerful 7.8-magnitude earthquake in Nepal may not come into view for days, but global charities are already sending emergency aid. Click to see how you can help.
Nowcast | as of 4:12 am CDT on April 26, 2015

A few small...isolated showers will stream across portions of south Texas this morning. Rainfall amount will be light...with most locations only receiving a trace from this activity. An occasional lightning strike may occur with some of this activity as well...but most will remain showers. In addition...fog has developed across portions of south Texas and the middle Texas coastal waters. Some areas will experience visibilities of 1 mile or less at times. Motorists and mariners should proceed with caution in areas of reduced visibilities.

×

10-Day Weather Forecast

Almanac

Astronomy

Apr. 26, 2015 Rise Set
Actual Time
Civil Twilight
Nautical Twilight
Astronomical Twilight
Moon
Length of Visible Light
Length of Day
Tomorrow will be .
, % of the Moon is Illuminated

Today's Extremes

State Highs State Lows

Community

WunderPhotos

Upload Photos

1,816,962 photos uploaded!

WunderBlogs® & News

Nearby

Air Quality

  Air Quality AQ Index Pollutant
Not available.

Snow Depth

Station Depth Elevation

Earthquake Activity

City Distance Mag. Time & Date
Minimum magnitude displayed is 2.5.

Coastal Water Temperatures

Place Temperature

Stations

Nearby Weather Stations

Station Location Temp. Windchill Dew Point Humidity Wind Precip. Elev Updated Type